This is the latest recevied weather packets stored in our database for station/object K4FB. If no packets are shown the sender has not sent any weather packets the latest 10 day(s).
| Time | Temp. | Humidity | Pressure | Rain* | Wind** | Luminosity | Snow |
|---|---|---|---|---|---|---|---|
| 1777109704 | 17.22° C | 93% | 1012.2 hPa | 0 mm | - | - | - |
| 1777109416 | 17.22° C | 93% | 1012.2 hPa | 0 mm | - | - | - |
| 1777107633 | 17.22° C | 92% | 1012.2 hPa | 0 mm | - | - | - |
| 1777107310 | 17.22° C | 92% | 1012.3 hPa | 0 mm | - | - | - |
| 1777106719 | 17.22° C | 92% | 1012.4 hPa | 0 mm | - | - | - |
| 1777106108 | 17.22° C | 92% | 1012.4 hPa | 0 mm | - | - | - |
| 1777105505 | 17.22° C | 91% | 1012.3 hPa | 0 mm | - | - | - |
| 1777104029 | 17.22° C | 89% | 1012.3 hPa | 0 mm | - | - | - |
| 1777103125 | 17.78° C | 89% | 1012.3 hPa | 0 mm | - | - | - |
| 1777102809 | 17.78° C | 89% | 1012.3 hPa | 0 mm | - | - | - |
| 1777096509 | 20° C | 83% | 1013.1 hPa | 0 mm | - | - | - |
| 1777093811 | 20.56° C | 81% | 1013.5 hPa | 0 mm | - | - | - |
| 1777092606 | 21.11° C | 79% | 1013.7 hPa | 0 mm | - | - | - |
| 1777090810 | 21.67° C | 77% | 1013.8 hPa | 0 mm | - | - | - |
| 1777089908 | 22.22° C | 76% | 1013.9 hPa | 0 mm | - | - | - |
| 1777089621 | 22.22° C | 75% | 1013.8 hPa | 0 mm | - | - | - |
| 1777088717 | 22.78° C | 75% | 1013.8 hPa | 0 mm | - | - | - |
| 1777087207 | 22.78° C | 74% | 1014 hPa | 0 mm | - | - | - |
| 1777085111 | 23.33° C | 71% | 1013.7 hPa | 0 mm | - | - | - |
| 1777083323 | 24.44° C | 67% | 1013.6 hPa | 0 mm | - | - | - |
| 1777081528 | 25° C | 64% | 1013.3 hPa | 0 mm | - | - | - |
| 1777078853 | 25.56° C | 58% | 1012.7 hPa | 0 mm | - | - | - |
| 1777078509 | 25° C | 58% | 1012.5 hPa | 0 mm | - | - | - |
| 1777075222 | 26.67° C | 51% | 1012 hPa | 0 mm | - | - | - |
| 1777074608 | 26.67° C | 49% | 1012 hPa | 0 mm | - | - | - |
* Rain latest hour (hover to see other rain measurements)
** Current wind speed in m/s (hover to see current wind gust speed)